Search METAR Data

METAR Data for ENSH:

ENSH 301220Z 20007KT 9999 FEW025 13/10 Q1012 RMK WIND 0150FT /////KT